Time;durP1;ratioP1;P1;durP2;ratioP2;P2;SDS_P1;SDS_P2;PMS_P1;PMS_P2;Temp;Humidity;BMP_temperature;BMP_pressure;BME280_temperature;BME280_humidity;BME280_pressure;Samples;Min_cycle;Max_cycle;Signal;HPM_P1;HPM_P2
2021/12/12 00:02:08;;;;;;;36.83;18.33;;;;;;;-0.20;72.84;101811.81;5048714;28;20033;-65
2021/12/12 00:04:38;;;;;;;40.28;18.90;;;;;;;-0.39;74.51;101807.31;5049329;28;20667;-65
2021/12/12 00:07:09;;;;;;;46.22;19.98;;;;;;;-0.57;75.78;101804.56;5049065;28;20519;-65
2021/12/12 00:09:39;;;;;;;59.88;21.73;;;;;;;-0.62;77.17;101807.06;5048812;28;20555;-65
2021/12/12 00:12:10;;;;;;;51.15;21.40;;;;;;;-0.82;78.73;101806.00;5043570;28;20073;-64
2021/12/12 00:14:37;;;;;;;52.95;20.63;;;;;;;-0.79;77.10;101810.31;5051343;28;20079;-64
2021/12/12 00:17:06;;;;;;;41.03;18.08;;;;;;;-0.59;75.99;101807.09;5049531;28;20606;-65
2021/12/12 00:19:35;;;;;;;38.20;20.10;;;;;;;-0.49;75.33;101808.09;5041856;28;20193;-65
2021/12/12 00:22:04;;;;;;;44.78;19.27;;;;;;;-0.66;75.80;101804.44;5033122;28;20308;-65
2021/12/12 00:24:31;;;;;;;52.92;20.80;;;;;;;-0.50;75.60;101807.22;5040764;28;20134;-65
2021/12/12 00:26:59;;;;;;;47.75;21.75;;;;;;;-0.46;74.75;101813.25;5034570;28;20037;-65
2021/12/12 00:29:28;;;;;;;49.53;20.70;;;;;;;-0.39;73.71;101815.03;5040822;28;20102;-65
2021/12/12 00:31:58;;;;;;;49.35;20.38;;;;;;;-0.16;73.81;101818.72;5048948;28;20061;-66
2021/12/12 00:34:29;;;;;;;34.17;17.08;;;;;;;-0.25;72.20;101826.34;5047792;28;20065;-66
2021/12/12 00:36:55;;;;;;;46.13;20.15;;;;;;;-0.50;74.44;101820.09;5045993;28;20053;-66
2021/12/12 00:39:24;;;;;;;43.47;19.98;;;;;;;-0.66;76.30;101833.63;5051208;28;20075;-65
2021/12/12 00:41:53;;;;;;;51.22;21.02;;;;;;;-0.62;76.56;101816.50;5036373;28;20069;-65
2021/12/12 00:44:20;;;;;;;47.10;20.17;;;;;;;-0.84;77.22;101825.69;5032905;28;20052;-65
2021/12/12 00:46:48;;;;;;;61.33;23.20;;;;;;;-0.91;77.72;101823.03;5038436;28;20566;-66
2021/12/12 00:49:16;;;;;;;49.08;22.17;;;;;;;-0.83;76.95;101832.59;5051144;28;20099;-66
2021/12/12 00:51:46;;;;;;;52.05;21.05;;;;;;;-0.93;78.06;101820.47;5034334;28;20073;-66
2021/12/12 00:54:14;;;;;;;59.63;21.00;;;;;;;-1.06;77.53;101824.56;5040542;28;20049;-66
2021/12/12 00:56:42;;;;;;;46.17;21.17;;;;;;;-1.15;77.99;101824.47;5047999;28;20049;-66
2021/12/12 00:59:09;;;;;;;48.83;20.30;;;;;;;-1.03;77.47;101823.75;5051060;28;20099;-66
2021/12/12 01:01:41;;;;;;;46.55;21.85;;;;;;;-1.27;78.68;101834.59;5052344;28;20041;-66
2021/12/12 01:04:11;;;;;;;53.88;23.70;;;;;;;-1.28;80.20;101839.69;5054506;28;20128;-66
2021/12/12 01:06:38;;;;;;;51.53;21.42;;;;;;;-1.44;80.48;101835.22;5050626;28;20045;-66
2021/12/12 01:09:10;;;;;;;48.25;21.90;;;;;;;-1.38;80.45;101835.28;5045182;28;20061;-66
2021/12/12 01:11:41;;;;;;;48.35;20.30;;;;;;;-1.36;79.76;101834.44;5036140;28;20179;-65
2021/12/12 01:14:11;;;;;;;54.33;22.15;;;;;;;-1.33;79.77;101829.34;5049020;28;20504;-65
2021/12/12 01:16:42;;;;;;;52.00;21.77;;;;;;;-1.26;80.50;101830.31;5050439;28;20444;-65
2021/12/12 01:19:14;;;;;;;43.90;20.02;;;;;;;-0.90;78.74;101827.34;5037845;28;20041;-65
2021/12/12 01:21:45;;;;;;;59.03;22.20;;;;;;;-0.73;78.44;101833.56;5040868;28;20095;-65
2021/12/12 01:24:16;;;;;;;51.78;22.52;;;;;;;-0.46;77.38;101825.28;5034014;28;20049;-65
2021/12/12 01:26:43;;;;;;;50.20;22.02;;;;;;;-0.43;77.15;101831.31;5035866;28;20490;-65
2021/12/12 01:29:10;;;;;;;51.88;24.25;;;;;;;-0.27;76.93;101845.22;5030195;28;20103;-66
2021/12/12 01:31:46;;;;;;;48.60;22.73;;;;;;;-0.39;77.62;101838.25;5030354;28;20501;-66
2021/12/12 01:34:15;;;;;;;53.58;22.48;;;;;;;-0.50;77.89;101845.00;5030372;28;20056;-66
2021/12/12 01:36:51;;;;;;;46.00;20.58;;;;;;;-0.48;77.52;101839.88;5030015;28;20045;-66
2021/12/12 01:39:23;;;;;;;49.72;21.15;;;;;;;-0.62;78.34;101847.41;5029863;28;20122;-66
2021/12/12 01:41:56;;;;;;;48.13;21.83;;;;;;;-0.63;78.71;101843.13;5040812;28;20049;-66
2021/12/12 01:44:29;;;;;;;52.80;21.92;;;;;;;-0.71;78.47;101853.34;5049983;28;20615;-66
2021/12/12 01:47:03;;;;;;;46.58;21.83;;;;;;;-0.86;79.22;101844.56;5048705;28;20053;-66
2021/12/12 01:49:31;;;;;;;62.20;23.88;;;;;;;-0.83;80.04;101842.03;5051280;28;20061;-66
2021/12/12 01:51:58;;;;;;;49.88;23.90;;;;;;;-0.62;79.52;101834.53;5049693;28;20041;-66
2021/12/12 01:54:30;;;;;;;54.08;21.42;;;;;;;-0.56;79.67;101832.06;5049644;28;20048;-66
2021/12/12 01:56:59;;;;;;;55.28;23.27;;;;;;;-0.27;78.31;101829.78;5049626;28;20098;-66
2021/12/12 01:59:32;;;;;;;63.25;24.38;;;;;;;-0.27;78.18;101829.78;5049763;28;20041;-66
2021/12/12 02:02:03;;;;;;;54.80;20.73;;;;;;;-0.37;78.31;101833.94;5049782;28;20060;-66
2021/12/12 02:04:33;;;;;;;56.42;22.73;;;;;;;-0.27;77.87;101840.94;5053093;28;20098;-66
2021/12/12 02:07:00;;;;;;;53.30;21.45;;;;;;;-0.22;77.87;101841.84;5069509;28;20037;-66
2021/12/12 02:09:29;;;;;;;57.72;23.08;;;;;;;0.01;77.24;101836.91;5053492;28;20049;-66
2021/12/12 02:11:58;;;;;;;65.60;22.38;;;;;;;0.10;76.52;101831.84;5062326;28;20060;-66
2021/12/12 02:14:27;;;;;;;60.10;24.48;;;;;;;0.25;76.34;101837.13;5036543;28;20053;-66
2021/12/12 02:16:58;;;;;;;57.85;23.13;;;;;;;0.46;75.80;101842.44;5029024;28;20046;-66
2021/12/12 02:19:33;;;;;;;53.90;21.45;;;;;;;0.44;75.13;101843.28;5035622;28;20497;-66
2021/12/12 02:22:06;;;;;;;49.33;20.90;;;;;;;0.45;74.68;101845.84;5036469;28;20509;-66
2021/12/12 02:35:41;;;;;;;50.28;20.80;;;;;;;0.71;73.09;101861.50;5062361;28;20098;-66
2021/12/12 02:38:08;;;;;;;43.42;18.90;;;;;;;0.60;72.72;101862.28;5046615;28;20067;-66
2021/12/12 02:40:40;;;;;;;50.50;21.30;;;;;;;0.60;72.83;101864.88;5032424;28;20049;-66
2021/12/12 02:43:07;;;;;;;46.38;20.35;;;;;;;0.73;72.56;101866.69;5047117;28;20045;-66
2021/12/12 02:45:35;;;;;;;55.22;20.45;;;;;;;0.66;72.45;101865.81;5043874;28;20049;-66
2021/12/12 02:48:05;;;;;;;45.65;20.38;;;;;;;0.70;72.32;101871.84;5032033;28;20124;-66
2021/12/12 02:50:35;;;;;;;46.53;19.30;;;;;;;0.52;72.97;101875.13;5040958;28;20051;-66
2021/12/12 02:53:04;;;;;;;39.45;15.82;;;;;;;0.61;72.75;101875.22;5032554;28;20110;-66
2021/12/12 02:55:34;;;;;;;43.28;18.85;;;;;;;0.69;72.16;101873.56;5048691;28;20088;-66
2021/12/12 02:58:05;;;;;;;48.33;19.40;;;;;;;0.74;71.67;101878.75;5048189;28;20045;-66
2021/12/12 03:00:36;;;;;;;50.95;22.15;;;;;;;0.88;71.19;101872.81;5049662;28;20045;-66
2021/12/12 03:03:03;;;;;;;50.05;22.60;;;;;;;0.94;71.50;101877.16;5068667;28;20522;-66
2021/12/12 03:05:32;;;;;;;52.13;21.38;;;;;;;0.97;72.03;101872.88;5069161;28;20098;-66
2021/12/12 03:08:00;;;;;;;56.55;22.85;;;;;;;0.89;72.56;101869.38;5064737;28;20497;-66
2021/12/12 03:10:30;;;;;;;58.15;22.92;;;;;;;0.75;73.52;101870.13;5048775;28;20041;-66
2021/12/12 03:12:58;;;;;;;40.23;17.07;;;;;;;0.72;73.59;101876.16;5047893;28;20041;-66
2021/12/12 03:15:29;;;;;;;52.05;21.60;;;;;;;0.67;73.67;101884.72;5048396;28;20612;-66
2021/12/12 03:17:59;;;;;;;48.15;21.25;;;;;;;0.53;73.94;101879.47;5048280;28;20041;-66
2021/12/12 03:20:30;;;;;;;51.35;22.13;;;;;;;0.72;73.62;101883.03;5048175;28;20044;-66
2021/12/12 03:23:01;;;;;;;43.00;21.33;;;;;;;0.69;72.29;101888.19;5048319;28;20044;-66
2021/12/12 03:25:30;;;;;;;51.78;20.85;;;;;;;0.59;73.01;101887.25;5048087;28;20123;-66
2021/12/12 03:27:56;;;;;;;45.42;19.10;;;;;;;0.57;73.11;101886.38;5047740;28;20122;-66
2021/12/12 03:30:24;;;;;;;41.72;19.58;;;;;;;0.50;73.04;101889.75;5048528;28;20045;-66
2021/12/12 03:32:52;;;;;;;44.30;19.38;;;;;;;0.37;72.61;101888.78;5048550;28;20045;-66
2021/12/12 03:35:19;;;;;;;52.15;21.42;;;;;;;0.06;74.65;101888.53;5048467;28;20091;-66
2021/12/12 03:37:45;;;;;;;55.80;21.80;;;;;;;-0.36;76.78;101889.81;5048744;28;20466;-66
2021/12/12 03:40:16;;;;;;;48.42;21.00;;;;;;;-0.14;76.51;101889.19;5047902;28;20065;-66
2021/12/12 03:42:44;;;;;;;51.85;22.08;;;;;;;-0.13;76.28;101897.78;5046195;28;20451;-66
2021/12/12 03:45:11;;;;;;;43.38;20.25;;;;;;;-0.03;75.65;101892.72;5055579;28;20044;-66
2021/12/12 03:47:44;;;;;;;46.75;20.40;;;;;;;0.04;74.63;101897.97;5054208;28;20437;-66
2021/12/12 03:50:17;;;;;;;56.90;21.38;;;;;;;0.00;74.45;101897.91;5047811;28;20115;-66
2021/12/12 03:52:43;;;;;;;50.20;21.25;;;;;;;0.03;74.92;101902.25;5047937;28;20080;-66
2021/12/12 03:55:11;;;;;;;57.85;22.13;;;;;;;0.02;74.57;101904.81;5040128;28;20421;-66
2021/12/12 03:57:38;;;;;;;45.88;21.45;;;;;;;0.03;74.98;101898.81;5032764;28;20046;-66
2021/12/12 04:00:09;;;;;;;54.92;21.48;;;;;;;-0.05;75.42;101902.19;5045465;28;20118;-66
2021/12/12 04:02:36;;;;;;;61.72;24.08;;;;;;;-0.26;76.72;101901.94;5050205;28;20067;-66
2021/12/12 04:05:02;;;;;;;54.33;23.60;;;;;;;-0.26;76.86;101913.97;5056737;28;20076;-66
2021/12/12 04:07:32;;;;;;;55.33;23.20;;;;;;;-0.22;76.77;101903.69;5031896;28;20077;-66
2021/12/12 04:09:59;;;;;;;49.15;19.48;;;;;;;-0.38;77.26;101903.53;5041595;28;20044;-66
2021/12/12 04:12:26;;;;;;;58.65;23.90;;;;;;;-0.39;77.02;101907.81;5041373;28;20072;-65
2021/12/12 04:14:55;;;;;;;63.05;23.58;;;;;;;-0.39;78.22;101901.78;5033315;28;20072;-65
2021/12/12 04:17:24;;;;;;;70.68;26.98;;;;;;;-0.44;78.49;101895.75;5039598;28;20065;-65
2021/12/12 04:19:53;;;;;;;72.28;26.60;;;;;;;-0.62;80.15;101893.78;5051171;28;20069;-65
2021/12/12 04:22:20;;;;;;;66.32;26.20;;;;;;;-0.82;81.28;101890.09;5036562;28;20046;-65
2021/12/12 04:24:52;;;;;;;69.20;29.35;;;;;;;-0.57;81.02;101886.97;5049905;28;20099;-65
2021/12/12 04:27:19;;;;;;;64.97;25.50;;;;;;;-0.63;81.69;101894.66;5036462;28;20103;-65
2021/12/12 04:29:48;;;;;;;81.75;30.23;;;;;;;-0.82;82.64;101896.13;5049457;28;20126;-66
2021/12/12 04:32:18;;;;;;;75.30;28.83;;;;;;;-0.43;81.00;101893.16;5051043;28;20087;-66
2021/12/12 04:34:48;;;;;;;65.40;25.58;;;;;;;-0.42;81.33;101897.47;5051237;28;20110;-66
2021/12/12 04:37:16;;;;;;;64.75;26.00;;;;;;;-0.15;80.02;101902.06;5050987;28;20048;-66
2021/12/12 04:39:47;;;;;;;64.65;25.77;;;;;;;-0.09;79.76;101899.53;5049589;28;20048;-66
2021/12/12 04:42:18;;;;;;;62.38;24.40;;;;;;;-0.02;79.06;101899.63;5052835;28;20094;-66
2021/12/12 04:44:49;;;;;;;67.82;25.42;;;;;;;0.14;77.95;101900.66;5070909;28;20389;-66
2021/12/12 04:50:07;;;;;;;59.65;22.08;;;;;;;0.42;77.44;101902.59;5060435;28;19998;-66
2021/12/12 04:52:42;;;;;;;70.00;24.83;;;;;;;0.61;76.60;101890.72;5038322;28;20072;-66
2021/12/12 04:55:13;;;;;;;63.30;23.48;;;;;;;0.51;76.53;101895.78;5050606;28;20119;-66
2021/12/12 04:57:46;;;;;;;66.50;23.92;;;;;;;0.80;75.66;101895.16;5042131;28;20398;-66
2021/12/12 05:00:16;;;;;;;69.45;25.52;;;;;;;0.58;76.53;101900.16;5050682;28;20083;-66
2021/12/12 05:02:49;;;;;;;61.72;22.98;;;;;;;0.65;76.09;101900.19;5050567;28;20091;-66
2021/12/12 05:05:19;;;;;;;51.25;21.30;;;;;;;0.60;75.92;101907.03;5050723;28;20523;-66
2021/12/12 05:07:49;;;;;;;55.00;22.75;;;;;;;0.76;74.98;101898.56;5044204;28;20812;-65
2021/12/12 05:10:22;;;;;;;53.38;21.73;;;;;;;0.62;75.15;101889.88;5034711;28;20045;-65
2021/12/12 05:12:56;;;;;;;46.47;20.95;;;;;;;0.42;76.08;101896.56;5051664;28;20102;-65
2021/12/12 05:15:28;;;;;;;52.42;21.80;;;;;;;0.63;75.68;101893.31;5050751;28;20478;-65
2021/12/12 05:17:57;;;;;;;60.42;23.13;;;;;;;0.67;75.10;101895.03;5049801;28;20049;-65
2021/12/12 05:20:30;;;;;;;59.53;22.48;;;;;;;0.41;76.24;101894.84;5050125;28;20061;-66
2021/12/12 05:23:00;;;;;;;60.92;22.80;;;;;;;0.53;76.46;101891.50;5037927;28;20103;-65
2021/12/12 05:25:35;;;;;;;49.55;20.63;;;;;;;0.51;76.81;101891.50;5037727;28;20137;-65
2021/12/12 05:28:04;;;;;;;49.78;22.35;;;;;;;0.75;75.33;101894.25;5050118;28;20451;-65
2021/12/12 05:30:33;;;;;;;46.65;20.42;;;;;;;0.87;74.87;101886.59;5050195;28;20064;-65
2021/12/12 05:33:02;;;;;;;54.35;20.77;;;;;;;0.93;74.22;101891.78;5070315;28;20036;-65
2021/12/12 05:35:31;;;;;;;57.67;20.70;;;;;;;0.95;74.01;101890.09;5070095;28;20132;-65
2021/12/12 05:37:58;;;;;;;47.35;19.45;;;;;;;0.90;74.18;101889.19;5062755;28;20099;-66
2021/12/12 05:40:28;;;;;;;49.92;19.75;;;;;;;0.77;75.05;101889.09;5035643;28;20119;-65
2021/12/12 05:42:59;;;;;;;48.45;19.15;;;;;;;0.80;74.22;101895.16;5046486;28;20045;-65
2021/12/12 05:45:27;;;;;;;52.03;20.42;;;;;;;0.75;74.17;101891.66;5049747;28;20071;-65
2021/12/12 05:47:53;;;;;;;59.13;21.55;;;;;;;0.56;74.86;101889.78;5049748;28;20136;-65
2021/12/12 05:50:21;;;;;;;51.90;21.20;;;;;;;0.52;74.92;101882.03;5039734;28;20115;-65
2021/12/12 05:52:53;;;;;;;42.67;18.33;;;;;;;0.45;75.08;101897.47;5033187;28;20072;-64
2021/12/12 05:55:23;;;;;;;53.88;21.98;;;;;;;0.16;76.51;101887.75;5049857;28;20558;-64
2021/12/12 05:57:54;;;;;;;52.08;20.75;;;;;;;-0.13;78.05;101890.06;5042333;28;20069;-64
2021/12/12 06:00:22;;;;;;;59.88;22.80;;;;;;;-0.10;78.12;101896.09;5045946;28;20041;-64
2021/12/12 06:02:50;;;;;;;65.35;23.80;;;;;;;-0.36;80.61;101900.09;5047837;28;20094;-66
2021/12/12 06:05:17;;;;;;;67.80;24.58;;;;;;;-0.17;80.54;101888.28;5049236;28;20095;-65
2021/12/12 06:07:44;;;;;;;79.97;23.80;;;;;;;-0.01;80.82;101887.59;5047556;28;20072;-65
2021/12/12 06:10:13;;;;;;;69.47;24.70;;;;;;;0.22;79.65;101882.66;5048753;28;20045;-65
2021/12/12 06:12:40;;;;;;;61.22;22.90;;;;;;;0.24;79.48;101880.94;5050437;28;20099;-66
2021/12/12 06:15:10;;;;;;;71.57;23.48;;;;;;;0.26;79.59;101872.34;5049319;28;20554;-66
2021/12/12 06:17:38;;;;;;;62.75;21.60;;;;;;;0.40;78.62;101887.97;5067033;28;20044;-65
2021/12/12 06:20:08;;;;;;;68.05;22.90;;;;;;;0.49;79.63;101885.44;5058962;28;20069;-65
2021/12/12 06:22:35;;;;;;;61.60;22.33;;;;;;;0.59;79.25;101879.53;5044473;28;20085;-65
2021/12/12 06:25:02;;;;;;;60.65;24.33;;;;;;;0.41;79.97;101885.38;5049618;28;20493;-65
2021/12/12 06:27:29;;;;;;;71.18;21.77;;;;;;;0.28;80.67;101881.00;5037336;28;20072;-65
2021/12/12 06:29:57;;;;;;;73.53;24.42;;;;;;;0.05;82.88;101885.06;5048758;28;20051;-65
2021/12/12 06:32:24;;;;;;;74.55;24.60;;;;;;;0.07;83.34;101885.09;5051283;28;20040;-65
2021/12/12 06:34:55;;;;;;;66.55;23.55;;;;;;;0.35;82.70;101887.94;5069355;28;20098;-65
2021/12/12 06:37:24;;;;;;;84.05;27.42;;;;;;;0.36;82.71;101889.66;5068441;28;20049;-65
2021/12/12 06:39:50;;;;;;;70.82;24.25;;;;;;;0.38;82.97;101885.38;5047407;28;20068;-65
2021/12/12 06:42:17;;;;;;;72.03;24.80;;;;;;;0.32;83.70;101875.00;5034719;28;20114;-65
2021/12/12 06:44:44;;;;;;;64.82;24.08;;;;;;;0.35;84.01;101876.75;5048905;28;20048;-65
2021/12/12 06:47:14;;;;;;;63.15;22.80;;;;;;;0.46;83.96;101877.69;5048768;28;20064;-65
2021/12/12 06:49:41;;;;;;;70.38;24.38;;;;;;;0.23;84.64;101867.19;5048440;28;20071;-65
2021/12/12 06:52:10;;;;;;;65.25;23.45;;;;;;;0.47;84.48;101866.53;5035961;28;20065;-65
2021/12/12 06:54:38;;;;;;;58.10;23.17;;;;;;;0.64;83.37;101864.03;5045653;28;20040;-65
2021/12/12 06:57:08;;;;;;;67.15;24.23;;;;;;;0.57;83.93;101865.72;5044104;28;20521;-65
2021/12/12 06:59:37;;;;;;;70.75;25.77;;;;;;;0.68;83.68;101864.09;5045431;28;20103;-65
2021/12/12 07:02:06;;;;;;;74.63;23.10;;;;;;;0.84;83.19;101880.53;5048999;28;20142;-66
2021/12/12 07:04:34;;;;;;;61.05;22.55;;;;;;;1.03;82.26;101886.69;5048764;28;20064;-66
2021/12/12 07:07:02;;;;;;;61.38;22.50;;;;;;;1.23;82.04;101872.13;5048611;28;20064;-66
2021/12/12 07:09:31;;;;;;;60.80;22.63;;;;;;;1.27;81.63;101871.28;5041051;28;20061;-66
2021/12/12 07:12:03;;;;;;;65.63;22.98;;;;;;;1.26;81.65;101874.72;5044213;28;20075;-66
2021/12/12 07:14:30;;;;;;;70.72;22.15;;;;;;;1.31;81.48;101870.44;5048982;28;20123;-66
2021/12/12 07:16:57;;;;;;;56.90;20.75;;;;;;;1.32;81.79;101878.22;5048248;28;20049;-66
2021/12/12 07:19:24;;;;;;;64.53;23.63;;;;;;;1.45;81.21;101871.34;5044132;28;20068;-66
2021/12/12 07:21:51;;;;;;;67.40;22.83;;;;;;;1.48;81.23;101873.09;5038060;28;20045;-66
2021/12/12 07:24:19;;;;;;;57.83;22.35;;;;;;;1.46;81.13;101873.97;5042693;28;20099;-66
2021/12/12 07:26:46;;;;;;;57.92;22.40;;;;;;;1.24;81.95;101884.19;5038378;28;20076;-66
2021/12/12 07:29:14;;;;;;;59.30;21.25;;;;;;;1.22;82.23;101873.00;5041578;28;20105;-65
2021/12/12 07:31:42;;;;;;;80.53;25.15;;;;;;;1.33;82.04;101879.09;5048819;28;20049;-66
2021/12/12 07:34:11;;;;;;;56.88;21.98;;;;;;;1.33;82.26;101876.50;5047795;28;20076;-66
2021/12/12 07:36:41;;;;;;;55.45;22.25;;;;;;;1.57;81.61;101876.56;5047972;28;20060;-66
2021/12/12 07:39:10;;;;;;;54.53;21.85;;;;;;;1.47;82.30;101874.81;5048275;28;20099;-66
2021/12/12 07:41:38;;;;;;;69.72;25.17;;;;;;;1.21;83.28;101868.69;5036028;28;20118;-65
2021/12/12 07:44:07;;;;;;;62.40;22.75;;;;;;;1.15;83.47;101879.84;5064676;28;20052;-65
2021/12/12 07:46:35;;;;;;;63.45;22.10;;;;;;;1.12;83.70;101868.63;5069122;28;20041;-66
2021/12/12 07:49:03;;;;;;;70.82;24.75;;;;;;;1.01;84.61;101875.47;5051811;28;20134;-66
2021/12/12 07:51:30;;;;;;;64.45;22.27;;;;;;;0.81;85.37;101875.38;5040258;28;20045;-65
2021/12/12 07:54:00;;;;;;;72.47;23.00;;;;;;;1.02;85.38;101866.84;5040870;28;20102;-66
2021/12/12 07:56:29;;;;;;;55.60;22.27;;;;;;;1.01;85.45;101847.03;5049525;28;20041;-66
2021/12/12 07:58:57;;;;;;;56.60;22.20;;;;;;;1.11;85.28;101859.16;5038991;28;20140;-66
2021/12/12 08:01:25;;;;;;;61.38;21.42;;;;;;;1.12;85.10;101847.97;5051379;28;20052;-66
2021/12/12 08:03:54;;;;;;;61.13;23.52;;;;;;;1.22;84.59;101842.84;5051720;28;20103;-66
2021/12/12 08:06:21;;;;;;;56.13;21.58;;;;;;;1.16;84.98;101850.56;5051445;28;20102;-66
2021/12/12 08:08:48;;;;;;;58.83;22.20;;;;;;;1.01;86.08;101857.38;5051000;28;20064;-64
2021/12/12 08:11:17;;;;;;;54.28;20.98;;;;;;;1.17;85.60;101851.44;5043387;28;20096;-65
2021/12/12 08:13:44;;;;;;;60.70;22.13;;;;;;;1.32;85.47;101859.25;5043053;28;20543;-65
2021/12/12 08:16:13;;;;;;;57.95;22.25;;;;;;;1.20;85.45;101856.63;5051429;28;20049;-65
2021/12/12 08:18:40;;;;;;;53.67;21.05;;;;;;;1.34;85.32;101857.53;5047028;28;20041;-65
2021/12/12 08:21:08;;;;;;;64.45;23.90;;;;;;;1.50;84.96;101851.56;5044552;28;20456;-66
2021/12/12 08:23:36;;;;;;;82.93;29.05;;;;;;;1.51;84.80;101855.03;5039570;28;20064;-66
2021/12/12 08:26:05;;;;;;;71.43;30.48;;;;;;;1.57;84.56;101850.72;5047393;28;20045;-66
2021/12/12 08:28:32;;;;;;;68.93;29.30;;;;;;;1.75;83.75;101866.28;5038803;28;20051;-66
2021/12/12 08:30:59;;;;;;;62.83;25.48;;;;;;;1.49;84.49;101865.34;5050967;28;20562;-66
2021/12/12 08:33:26;;;;;;;62.90;24.17;;;;;;;1.76;83.96;101873.19;5051128;28;20110;-66
2021/12/12 08:35:53;;;;;;;62.33;25.67;;;;;;;1.87;84.15;101868.03;5050624;28;20065;-66
2021/12/12 08:38:21;;;;;;;63.53;25.42;;;;;;;1.86;83.67;101863.72;5049654;28;20044;-66
2021/12/12 08:40:50;;;;;;;68.32;24.05;;;;;;;1.67;84.64;101862.81;5042132;28;20041;-66
2021/12/12 08:43:19;;;;;;;58.05;23.35;;;;;;;1.71;84.22;101863.66;5048933;28;20041;-67
2021/12/12 08:45:48;;;;;;;72.45;21.80;;;;;;;1.75;84.08;101875.75;5050625;28;20048;-67
2021/12/12 08:48:17;;;;;;;58.95;22.02;;;;;;;1.72;84.61;101868.84;5049361;28;20049;-67
2021/12/12 08:50:47;;;;;;;60.47;21.80;;;;;;;1.86;84.03;101868.88;5050117;28;20126;-67
2021/12/12 08:53:15;;;;;;;57.92;22.20;;;;;;;2.14;83.15;101865.50;5050116;28;20413;-66
2021/12/12 08:55:45;;;;;;;56.08;23.92;;;;;;;1.86;84.07;101864.56;5049215;28;20071;-66
2021/12/12 08:58:15;;;;;;;59.13;23.70;;;;;;;2.25;83.08;101857.72;5046448;28;20090;-68
2021/12/12 09:00:48;;;;;;;55.47;22.52;;;;;;;2.23;83.08;101862.03;5051032;28;20279;-67
2021/12/12 09:03:18;;;;;;;62.40;23.30;;;;;;;1.90;84.29;101858.56;5066397;28;20051;-66
2021/12/12 09:05:46;;;;;;;61.50;23.48;;;;;;;2.08;84.11;101854.25;5049805;28;20049;-68
2021/12/12 09:08:19;;;;;;;78.57;32.20;;;;;;;1.86;84.68;101854.22;5050217;28;20069;-67
2021/12/12 09:10:55;;;;;;;81.40;34.78;;;;;;;2.03;84.05;101838.75;5033831;28;20071;-67
2021/12/12 09:13:24;;;;;;;80.70;26.13;;;;;;;1.97;84.93;101849.06;5041625;28;20300;-67
2021/12/12 09:15:56;;;;;;;63.83;25.05;;;;;;;1.96;84.18;101849.91;5048954;28;20137;-67
2021/12/12 09:18:28;;;;;;;67.78;25.48;;;;;;;1.90;84.99;101849.94;5035436;28;20068;-67
2021/12/12 09:21:00;;;;;;;67.07;24.17;;;;;;;2.10;84.02;101855.13;5047100;28;20072;-67
2021/12/12 09:23:32;;;;;;;65.00;25.15;;;;;;;2.24;84.05;101856.84;5050072;28;20103;-67
2021/12/12 09:26:03;;;;;;;54.75;24.83;;;;;;;2.54;82.10;101855.97;5053852;28;20492;-68
2021/12/12 09:28:33;;;;;;;61.67;23.45;;;;;;;2.22;83.58;101848.22;5037764;28;20458;-67
2021/12/12 09:31:04;;;;;;;62.55;25.70;;;;;;;2.23;84.20;101839.59;5032503;28;20072;-67
2021/12/12 09:33:34;;;;;;;48.20;19.85;;;;;;;2.30;83.92;101845.63;5050284;28;20700;-69
2021/12/12 09:36:07;;;;;;;53.47;20.33;;;;;;;2.32;83.88;101847.38;5051211;28;20037;-69
2021/12/12 09:38:39;;;;;;;52.78;22.45;;;;;;;2.06;84.96;101861.16;5036018;28;20307;-68
2021/12/12 09:41:31;;;;;;;54.95;22.48;;;;;;;2.50;83.62;101858.56;5032918;28;20045;-67
2021/12/12 09:44:17;;;;;;;53.85;22.58;;;;;;;2.70;83.21;101849.91;5049286;28;20045;-67
2021/12/12 09:47:11;;;;;;;50.78;19.60;;;;;;;2.20;84.72;101854.25;5048832;28;20409;-68
2021/12/12 09:53:03;;;;;;;46.55;18.33;;;;;;;2.51;83.55;101857.72;5042078;28;20055;-69
2021/12/12 09:55:35;;;;;;;54.10;19.83;;;;;;;2.46;84.30;101862.88;5048922;28;20394;-69
2021/12/12 09:58:09;;;;;;;52.10;19.20;;;;;;;2.49;84.53;101872.38;5040660;28;20517;-69
2021/12/12 10:00:42;;;;;;;52.30;20.15;;;;;;;2.77;83.15;101861.13;5030302;28;20045;-69
2021/12/12 10:03:18;;;;;;;53.53;21.10;;;;;;;3.16;82.29;101860.16;5049050;28;20090;-69
2021/12/12 10:05:57;;;;;;;51.75;21.05;;;;;;;2.91;82.83;101852.47;5048821;28;20182;-70
2021/12/12 10:08:31;;;;;;;46.90;17.48;;;;;;;2.98;82.67;101858.47;5047971;28;20094;-70
2021/12/12 10:11:02;;;;;;;56.03;20.88;;;;;;;3.01;82.80;101855.00;5049927;28;20122;-69
2021/12/12 10:13:34;;;;;;;53.47;20.58;;;;;;;3.36;82.19;101842.81;5048676;28;20056;-69
2021/12/12 10:16:06;;;;;;;41.17;20.13;;;;;;;3.27;81.64;101843.69;5048747;28;20041;-69
2021/12/12 10:18:44;;;;;;;55.72;20.77;;;;;;;3.19;82.29;101837.66;5040016;28;20781;-69
2021/12/12 10:21:15;;;;;;;52.25;22.40;;;;;;;2.98;83.72;101845.53;5047984;28;20072;-69
2021/12/12 10:23:55;;;;;;;54.78;22.10;;;;;;;2.99;83.47;101841.22;5039482;28;20437;-69
2021/12/12 10:26:26;;;;;;;61.22;20.23;;;;;;;3.32;82.17;101826.41;5048505;28;20041;-69
2021/12/12 10:28:58;;;;;;;49.10;20.38;;;;;;;2.92;83.88;101836.03;5048992;28;20041;-70
2021/12/12 10:31:30;;;;;;;53.45;22.13;;;;;;;2.76;85.18;101839.53;5048757;28;20068;-70
2021/12/12 10:34:05;;;;;;;50.50;19.35;;;;;;;2.67;85.39;101851.63;5048399;28;20060;-70
2021/12/12 10:36:36;;;;;;;58.83;20.75;;;;;;;2.73;85.30;101839.56;5048599;28;20485;-69
2021/12/12 10:39:08;;;;;;;52.63;20.17;;;;;;;3.15;83.96;101837.69;5048267;28;20040;-69
2021/12/12 10:41:38;;;;;;;54.78;22.90;;;;;;;3.43;82.94;101832.41;5049921;28;20083;-69
2021/12/12 10:44:13;;;;;;;51.53;19.42;;;;;;;3.23;83.16;101818.66;5061640;28;20048;-69
2021/12/12 10:46:47;;;;;;;44.78;19.63;;;;;;;2.82;84.82;101820.53;5068377;28;20044;-70
2021/12/12 10:49:23;;;;;;;48.97;17.90;;;;;;;3.00;84.31;101814.41;5053787;28;20049;-69
2021/12/12 10:51:55;;;;;;;50.78;18.70;;;;;;;3.07;83.98;101808.38;5044629;28;20061;-69
2021/12/12 10:54:27;;;;;;;47.90;18.67;;;;;;;2.94;84.46;101808.41;5048833;28;20045;-69
2021/12/12 10:57:01;;;;;;;52.47;19.95;;;;;;;2.61;86.26;101805.03;5041996;28;20041;-69
2021/12/12 10:59:32;;;;;;;43.35;18.38;;;;;;;2.77;85.64;101806.75;5059741;28;20048;-69
2021/12/12 11:02:02;;;;;;;52.55;17.95;;;;;;;2.77;85.65;101806.75;5048206;28;20069;-69
2021/12/12 11:04:40;;;;;;;46.97;17.93;;;;;;;2.97;85.22;101794.56;5048612;28;20072;-69
2021/12/12 11:07:12;;;;;;;66.05;21.42;;;;;;;2.78;86.23;101786.00;5043214;28;20284;-69
2021/12/12 11:09:42;;;;;;;44.97;17.92;;;;;;;2.84;86.41;101778.22;5056509;28;20140;-69
2021/12/12 11:12:13;;;;;;;46.05;19.10;;;;;;;2.93;85.81;101775.59;5064855;28;20461;-69
2021/12/12 11:14:49;;;;;;;47.85;19.15;;;;;;;2.96;85.88;101771.28;5068051;28;20463;-69
2021/12/12 11:17:19;;;;;;;42.35;16.27;;;;;;;3.04;85.35;101764.31;5061368;28;20065;-69
2021/12/12 11:19:52;;;;;;;41.73;17.77;;;;;;;3.04;85.21;101754.81;5051050;28;20045;-69
2021/12/12 11:22:24;;;;;;;43.78;17.05;;;;;;;2.93;86.63;101752.28;5038618;28;20049;-69
2021/12/12 11:24:59;;;;;;;39.08;16.90;;;;;;;2.97;85.78;101747.94;5050752;28;20068;-66
2021/12/12 11:27:33;;;;;;;41.63;16.98;;;;;;;2.84;86.51;101748.88;5036745;28;20053;-68
2021/12/12 11:30:08;;;;;;;44.95;18.45;;;;;;;2.77;86.72;101736.81;5048196;28;20422;-68
2021/12/12 11:32:35;;;;;;;39.45;17.40;;;;;;;3.35;85.16;101738.25;5052869;28;20061;-68
2021/12/12 11:35:05;;;;;;;44.03;18.23;;;;;;;3.63;84.25;101732.84;5065262;28;20064;-68
2021/12/12 11:37:36;;;;;;;47.67;18.73;;;;;;;3.57;84.03;101735.50;5060733;28;20053;-68
2021/12/12 11:40:07;;;;;;;43.85;17.35;;;;;;;3.46;84.58;101745.94;5040832;28;20110;-69
2021/12/12 11:42:42;;;;;;;42.03;17.50;;;;;;;3.48;84.52;101746.78;5052515;28;20171;-69
2021/12/12 11:45:17;;;;;;;45.47;17.17;;;;;;;3.77;83.55;101739.66;5046740;28;20103;-69